sensor_id;sensor_type;location;lat;lon;timestamp;temperature;humidity
44843;DHT22;31884;52.538;13.820;2022-09-09T00:01:11;14.10;99.90
44843;DHT22;31884;52.538;13.820;2022-09-09T00:04:02;14.00;99.90
44843;DHT22;31884;52.538;13.820;2022-09-09T00:06:33;14.00;99.90
44843;DHT22;31884;52.538;13.820;2022-09-09T00:11:39;14.00;99.90
44843;DHT22;31884;52.538;13.820;2022-09-09T00:17:02;13.90;99.90
44843;DHT22;31884;52.538;13.820;2022-09-09T00:19:46;13.90;99.90
44843;DHT22;31884;52.538;13.820;2022-09-09T00:22:18;13.80;99.90
44843;DHT22;31884;52.538;13.820;2022-09-09T00:24:51;13.80;99.90
44843;DHT22;31884;52.538;13.820;2022-09-09T00:27:30;13.80;99.90
44843;DHT22;31884;52.538;13.820;2022-09-09T00:30:25;13.70;99.90
44843;DHT22;31884;52.538;13.820;2022-09-09T00:33:00;13.70;99.90
44843;DHT22;31884;52.538;13.820;2022-09-09T00:35:48;13.70;99.90
44843;DHT22;31884;52.538;13.820;2022-09-09T00:38:18;13.60;99.90
44843;DHT22;31884;52.538;13.820;2022-09-09T00:40:56;13.60;99.90
44843;DHT22;31884;52.538;13.820;2022-09-09T00:43:32;13.60;99.90
44843;DHT22;31884;52.538;13.820;2022-09-09T00:57:57;13.40;99.90
44843;DHT22;31884;52.538;13.820;2022-09-09T01:00:29;13.30;99.90
44843;DHT22;31884;52.538;13.820;2022-09-09T01:03:25;13.30;99.90
44843;DHT22;31884;52.538;13.820;2022-09-09T01:11:29;13.20;99.90
44843;DHT22;31884;52.538;13.820;2022-09-09T01:14:05;13.10;99.90
44843;DHT22;31884;52.538;13.820;2022-09-09T01:16:36;13.10;99.90
44843;DHT22;31884;52.538;13.820;2022-09-09T01:19:03;13.10;99.90
44843;DHT22;31884;52.538;13.820;2022-09-09T01:21:46;13.10;99.90
44843;DHT22;31884;52.538;13.820;2022-09-09T01:24:30;13.00;99.90
44843;DHT22;31884;52.538;13.820;2022-09-09T01:27:01;13.00;99.90
44843;DHT22;31884;52.538;13.820;2022-09-09T01:29:27;12.90;99.90
44843;DHT22;31884;52.538;13.820;2022-09-09T01:31:55;12.90;99.90
44843;DHT22;31884;52.538;13.820;2022-09-09T01:34:22;12.90;99.90
44843;DHT22;31884;52.538;13.820;2022-09-09T01:37:12;12.80;99.90
44843;DHT22;31884;52.538;13.820;2022-09-09T01:39:39;12.80;99.90
44843;DHT22;31884;52.538;13.820;2022-09-09T01:42:09;12.80;99.90
44843;DHT22;31884;52.538;13.820;2022-09-09T01:44:36;12.80;99.90
44843;DHT22;31884;52.538;13.820;2022-09-09T01:47:03;12.70;99.90
44843;DHT22;31884;52.538;13.820;2022-09-09T01:49:28;12.70;99.90
44843;DHT22;31884;52.538;13.820;2022-09-09T01:51:55;12.70;99.90
44843;DHT22;31884;52.538;13.820;2022-09-09T01:54:23;12.70;99.90
44843;DHT22;31884;52.538;13.820;2022-09-09T02:00:07;12.60;99.90
44843;DHT22;31884;52.538;13.820;2022-09-09T02:03:02;12.60;99.90
44843;DHT22;31884;52.538;13.820;2022-09-09T02:05:45;12.60;99.90
44843;DHT22;31884;52.538;13.820;2022-09-09T02:08:24;12.50;99.90
44843;DHT22;31884;52.538;13.820;2022-09-09T02:11:11;12.50;99.90
44843;DHT22;31884;52.538;13.820;2022-09-09T02:13:38;12.50;99.90
44843;DHT22;31884;52.538;13.820;2022-09-09T02:16:08;12.40;99.90
44843;DHT22;31884;52.538;13.820;2022-09-09T02:21:14;12.40;99.90
44843;DHT22;31884;52.538;13.820;2022-09-09T02:23:43;12.30;99.90
44843;DHT22;31884;52.538;13.820;2022-09-09T02:26:11;12.30;99.90
44843;DHT22;31884;52.538;13.820;2022-09-09T02:28:39;12.30;99.90
44843;DHT22;31884;52.538;13.820;2022-09-09T02:31:06;12.20;99.90
44843;DHT22;31884;52.538;13.820;2022-09-09T02:33:37;12.20;99.90
44843;DHT22;31884;52.538;13.820;2022-09-09T02:36:05;12.20;99.90
44843;DHT22;31884;52.538;13.820;2022-09-09T02:38:36;12.10;99.90
44843;DHT22;31884;52.538;13.820;2022-09-09T02:41:03;12.20;99.90
44843;DHT22;31884;52.538;13.820;2022-09-09T02:43:33;12.20;99.90
44843;DHT22;31884;52.538;13.820;2022-09-09T02:46:03;12.20;99.90
44843;DHT22;31884;52.538;13.820;2022-09-09T02:56:31;12.20;99.90
44843;DHT22;31884;52.538;13.820;2022-09-09T02:58:59;12.10;99.90
44843;DHT22;31884;52.538;13.820;2022-09-09T03:01:24;12.10;99.90
44843;DHT22;31884;52.538;13.820;2022-09-09T03:03:50;12.20;99.90
44843;DHT22;31884;52.538;13.820;2022-09-09T03:06:16;12.10;99.90
44843;DHT22;31884;52.538;13.820;2022-09-09T03:08:41;12.10;99.90
44843;DHT22;31884;52.538;13.820;2022-09-09T03:11:07;12.10;99.90
44843;DHT22;31884;52.538;13.820;2022-09-09T03:13:34;12.00;99.90
44843;DHT22;31884;52.538;13.820;2022-09-09T03:16:00;12.00;99.90
44843;DHT22;31884;52.538;13.820;2022-09-09T03:18:25;12.00;99.90
44843;DHT22;31884;52.538;13.820;2022-09-09T03:20:51;12.00;99.90
44843;DHT22;31884;52.538;13.820;2022-09-09T03:23:16;11.90;99.90
44843;DHT22;31884;52.538;13.820;2022-09-09T03:25:49;11.90;99.90
44843;DHT22;31884;52.538;13.820;2022-09-09T03:28:15;11.90;99.90
44843;DHT22;31884;52.538;13.820;2022-09-09T03:30:41;11.90;99.90
44843;DHT22;31884;52.538;13.820;2022-09-09T03:33:06;11.90;99.90
44843;DHT22;31884;52.538;13.820;2022-09-09T03:35:32;11.90;99.90
44843;DHT22;31884;52.538;13.820;2022-09-09T03:37:57;11.90;99.90
44843;DHT22;31884;52.538;13.820;2022-09-09T03:40:23;11.90;99.90
44843;DHT22;31884;52.538;13.820;2022-09-09T03:42:48;11.90;99.90
44843;DHT22;31884;52.538;13.820;2022-09-09T03:45:14;11.90;99.90
44843;DHT22;31884;52.538;13.820;2022-09-09T03:47:40;11.90;99.90
44843;DHT22;31884;52.538;13.820;2022-09-09T03:50:07;11.90;99.90
44843;DHT22;31884;52.538;13.820;2022-09-09T03:52:37;11.80;99.90
44843;DHT22;31884;52.538;13.820;2022-09-09T03:55:03;11.80;99.90
44843;DHT22;31884;52.538;13.820;2022-09-09T03:57:29;11.80;99.90
44843;DHT22;31884;52.538;13.820;2022-09-09T03:59:55;11.70;99.90
44843;DHT22;31884;52.538;13.820;2022-09-09T04:02:21;11.70;99.90
44843;DHT22;31884;52.538;13.820;2022-09-09T04:04:46;11.70;99.90
44843;DHT22;31884;52.538;13.820;2022-09-09T04:07:12;11.60;99.90
44843;DHT22;31884;52.538;13.820;2022-09-09T04:09:38;11.70;99.90
44843;DHT22;31884;52.538;13.820;2022-09-09T04:12:03;11.60;99.90
44843;DHT22;31884;52.538;13.820;2022-09-09T04:14:29;11.60;99.90
44843;DHT22;31884;52.538;13.820;2022-09-09T04:16:55;11.60;99.90
44843;DHT22;31884;52.538;13.820;2022-09-09T04:19:22;11.50;99.90
44843;DHT22;31884;52.538;13.820;2022-09-09T04:21:48;11.50;99.90
44843;DHT22;31884;52.538;13.820;2022-09-09T04:24:17;11.50;99.90
44843;DHT22;31884;52.538;13.820;2022-09-09T04:26:43;11.50;99.90
44843;DHT22;31884;52.538;13.820;2022-09-09T04:29:08;11.40;99.90
44843;DHT22;31884;52.538;13.820;2022-09-09T04:31:34;11.50;99.90
44843;DHT22;31884;52.538;13.820;2022-09-09T04:33:59;11.50;99.90
44843;DHT22;31884;52.538;13.820;2022-09-09T04:36:30;11.40;99.90
44843;DHT22;31884;52.538;13.820;2022-09-09T04:38:57;11.40;99.90
44843;DHT22;31884;52.538;13.820;2022-09-09T04:41:22;11.40;99.90
44843;DHT22;31884;52.538;13.820;2022-09-09T04:43:48;11.50;99.90
44843;DHT22;31884;52.538;13.820;2022-09-09T04:46:14;11.50;99.90
44843;DHT22;31884;52.538;13.820;2022-09-09T04:48:41;11.50;99.90
44843;DHT22;31884;52.538;13.820;2022-09-09T04:51:10;11.50;99.90
44843;DHT22;31884;52.538;13.820;2022-09-09T04:53:37;11.50;99.90
44843;DHT22;31884;52.538;13.820;2022-09-09T04:56:05;11.50;99.90
44843;DHT22;31884;52.538;13.820;2022-09-09T04:58:31;11.60;99.90
44843;DHT22;31884;52.538;13.820;2022-09-09T05:01:08;11.60;99.90
44843;DHT22;31884;52.538;13.820;2022-09-09T05:03:34;11.60;99.90
44843;DHT22;31884;52.538;13.820;2022-09-09T05:08:29;11.70;99.90
44843;DHT22;31884;52.538;13.820;2022-09-09T05:10:54;11.70;99.90
44843;DHT22;31884;52.538;13.820;2022-09-09T05:13:20;11.80;99.90
44843;DHT22;31884;52.538;13.820;2022-09-09T05:15:53;11.80;99.90
44843;DHT22;31884;52.538;13.820;2022-09-09T05:18:19;11.90;99.90
44843;DHT22;31884;52.538;13.820;2022-09-09T05:20:44;11.90;99.90
44843;DHT22;31884;52.538;13.820;2022-09-09T05:23:10;12.00;99.90
44843;DHT22;31884;52.538;13.820;2022-09-09T05:25:39;12.20;99.90
44843;DHT22;31884;52.538;13.820;2022-09-09T05:28:06;13.00;99.90
44843;DHT22;31884;52.538;13.820;2022-09-09T05:30:32;14.10;99.90
44843;DHT22;31884;52.538;13.820;2022-09-09T05:32:59;15.00;99.90
44843;DHT22;31884;52.538;13.820;2022-09-09T05:35:24;16.00;99.90
44843;DHT22;31884;52.538;13.820;2022-09-09T05:37:50;16.90;99.90
44843;DHT22;31884;52.538;13.820;2022-09-09T05:40:15;17.70;99.90
44843;DHT22;31884;52.538;13.820;2022-09-09T05:42:41;18.50;99.90
44843;DHT22;31884;52.538;13.820;2022-09-09T05:45:09;19.30;99.90
44843;DHT22;31884;52.538;13.820;2022-09-09T05:47:35;20.10;99.90
44843;DHT22;31884;52.538;13.820;2022-09-09T05:50:03;20.90;99.90
44843;DHT22;31884;52.538;13.820;2022-09-09T05:52:28;21.50;99.90
44843;DHT22;31884;52.538;13.820;2022-09-09T05:54:54;22.20;99.90
44843;DHT22;31884;52.538;13.820;2022-09-09T05:57:20;22.70;99.90
44843;DHT22;31884;52.538;13.820;2022-09-09T05:59:46;23.20;99.90
44843;DHT22;31884;52.538;13.820;2022-09-09T06:02:11;23.70;99.60
44843;DHT22;31884;52.538;13.820;2022-09-09T06:04:38;24.20;98.30
44843;DHT22;31884;52.538;13.820;2022-09-09T06:07:04;24.70;96.80
44843;DHT22;31884;52.538;13.820;2022-09-09T06:09:30;25.20;95.20
44843;DHT22;31884;52.538;13.820;2022-09-09T06:11:56;25.80;92.90
44843;DHT22;31884;52.538;13.820;2022-09-09T06:14:22;26.00;90.10
44843;DHT22;31884;52.538;13.820;2022-09-09T06:16:48;26.30;90.00
44843;DHT22;31884;52.538;13.820;2022-09-09T06:19:14;26.70;87.90
44843;DHT22;31884;52.538;13.820;2022-09-09T06:21:39;26.80;83.20
44843;DHT22;31884;52.538;13.820;2022-09-09T06:24:06;27.10;77.30
44843;DHT22;31884;52.538;13.820;2022-09-09T06:26:37;27.50;72.50
44843;DHT22;31884;52.538;13.820;2022-09-09T06:29:06;27.50;68.20
44843;DHT22;31884;52.538;13.820;2022-09-09T06:31:34;27.80;65.90
44843;DHT22;31884;52.538;13.820;2022-09-09T06:34:00;28.00;61.20
44843;DHT22;31884;52.538;13.820;2022-09-09T06:36:31;28.30;59.40
44843;DHT22;31884;52.538;13.820;2022-09-09T06:38:57;28.80;54.40
44843;DHT22;31884;52.538;13.820;2022-09-09T06:41:25;29.10;56.00
44843;DHT22;31884;52.538;13.820;2022-09-09T06:43:54;29.30;46.90
44843;DHT22;31884;52.538;13.820;2022-09-09T06:46:28;29.30;50.30
44843;DHT22;31884;52.538;13.820;2022-09-09T06:48:56;29.50;45.20
44843;DHT22;31884;52.538;13.820;2022-09-09T06:51:23;29.60;28.50
44843;DHT22;31884;52.538;13.820;2022-09-09T06:53:57;29.60;46.50
44843;DHT22;31884;52.538;13.820;2022-09-09T06:56:25;29.60;42.40
44843;DHT22;31884;52.538;13.820;2022-09-09T06:58:53;29.80;45.00
44843;DHT22;31884;52.538;13.820;2022-09-09T07:01:21;29.90;40.40
44843;DHT22;31884;52.538;13.820;2022-09-09T07:03:50;29.80;43.70
44843;DHT22;31884;52.538;13.820;2022-09-09T07:06:18;30.10;39.70
44843;DHT22;31884;52.538;13.820;2022-09-09T07:08:48;30.40;41.10
44843;DHT22;31884;52.538;13.820;2022-09-09T07:11:14;30.40;34.90
44843;DHT22;31884;52.538;13.820;2022-09-09T07:13:40;30.60;39.20
44843;DHT22;31884;52.538;13.820;2022-09-09T07:16:07;30.90;37.50
44843;DHT22;31884;52.538;13.820;2022-09-09T07:18:33;31.00;35.80
44843;DHT22;31884;52.538;13.820;2022-09-09T07:21:00;31.30;34.70
44843;DHT22;31884;52.538;13.820;2022-09-09T07:23:28;31.30;34.50
44843;DHT22;31884;52.538;13.820;2022-09-09T07:25:53;31.40;31.20
44843;DHT22;31884;52.538;13.820;2022-09-09T07:28:20;31.10;34.20
44843;DHT22;31884;52.538;13.820;2022-09-09T07:30:59;31.00;35.30
44843;DHT22;31884;52.538;13.820;2022-09-09T07:33:27;31.00;25.90
44843;DHT22;31884;52.538;13.820;2022-09-09T07:36:03;30.80;34.40
44843;DHT22;31884;52.538;13.820;2022-09-09T07:38:29;30.70;30.00
44843;DHT22;31884;52.538;13.820;2022-09-09T07:41:09;30.40;34.00
44843;DHT22;31884;52.538;13.820;2022-09-09T07:43:41;30.50;28.30
44843;DHT22;31884;52.538;13.820;2022-09-09T07:46:07;30.50;34.20
44843;DHT22;31884;52.538;13.820;2022-09-09T07:48:33;30.50;34.30
44843;DHT22;31884;52.538;13.820;2022-09-09T07:51:04;30.50;33.40
44843;DHT22;31884;52.538;13.820;2022-09-09T07:53:31;30.50;32.40
44843;DHT22;31884;52.538;13.820;2022-09-09T07:56:02;30.00;32.40
44843;DHT22;31884;52.538;13.820;2022-09-09T07:58:28;30.00;26.70
44843;DHT22;31884;52.538;13.820;2022-09-09T08:00:54;29.90;33.10
44843;DHT22;31884;52.538;13.820;2022-09-09T08:03:20;29.80;33.00
44843;DHT22;31884;52.538;13.820;2022-09-09T08:05:47;29.40;32.40
44843;DHT22;31884;52.538;13.820;2022-09-09T08:08:12;29.10;32.60
44843;DHT22;31884;52.538;13.820;2022-09-09T08:10:38;28.70;32.50
44843;DHT22;31884;52.538;13.820;2022-09-09T08:13:03;28.50;34.20
44843;DHT22;31884;52.538;13.820;2022-09-09T08:15:30;28.40;35.20
44843;DHT22;31884;52.538;13.820;2022-09-09T08:17:56;28.40;35.70
44843;DHT22;31884;52.538;13.820;2022-09-09T08:20:21;28.20;34.30
44843;DHT22;31884;52.538;13.820;2022-09-09T08:22:48;28.10;34.00
44843;DHT22;31884;52.538;13.820;2022-09-09T08:25:15;28.00;34.60
44843;DHT22;31884;52.538;13.820;2022-09-09T08:27:40;28.00;34.50
44843;DHT22;31884;52.538;13.820;2022-09-09T08:30:06;27.80;34.00
44843;DHT22;31884;52.538;13.820;2022-09-09T08:32:32;27.50;33.40
44843;DHT22;31884;52.538;13.820;2022-09-09T08:34:57;27.30;32.20
44843;DHT22;31884;52.538;13.820;2022-09-09T08:37:23;27.00;32.80
44843;DHT22;31884;52.538;13.820;2022-09-09T08:39:48;26.70;32.50
44843;DHT22;31884;52.538;13.820;2022-09-09T08:42:37;26.60;34.10
44843;DHT22;31884;52.538;13.820;2022-09-09T08:45:34;26.60;35.00
44843;DHT22;31884;52.538;13.820;2022-09-09T08:50:40;26.40;34.20
44843;DHT22;31884;52.538;13.820;2022-09-09T08:53:16;26.10;34.60
44843;DHT22;31884;52.538;13.820;2022-09-09T08:55:52;26.00;34.80
44843;DHT22;31884;52.538;13.820;2022-09-09T09:04:00;25.40;36.00
44843;DHT22;31884;52.538;13.820;2022-09-09T09:11:57;24.50;39.20
44843;DHT22;31884;52.538;13.820;2022-09-09T09:14:30;24.50;39.60
44843;DHT22;31884;52.538;13.820;2022-09-09T09:17:01;24.80;40.60
44843;DHT22;31884;52.538;13.820;2022-09-09T09:19:29;25.00;42.10
44843;DHT22;31884;52.538;13.820;2022-09-09T09:22:03;25.40;42.10
44843;DHT22;31884;52.538;13.820;2022-09-09T09:27:25;26.20;41.00
44843;DHT22;31884;52.538;13.820;2022-09-09T09:29:54;26.50;39.30
44843;DHT22;31884;52.538;13.820;2022-09-09T09:32:24;26.70;38.80
44843;DHT22;31884;52.538;13.820;2022-09-09T09:34:55;26.80;37.70
44843;DHT22;31884;52.538;13.820;2022-09-09T09:37:33;26.90;36.60
44843;DHT22;31884;52.538;13.820;2022-09-09T09:40:29;27.10;35.30
44843;DHT22;31884;52.538;13.820;2022-09-09T09:42:58;27.10;31.50
44843;DHT22;31884;52.538;13.820;2022-09-09T09:45:53;27.00;34.20
44843;DHT22;31884;52.538;13.820;2022-09-09T09:48:19;26.90;31.20
44843;DHT22;31884;52.538;13.820;2022-09-09T09:50:59;26.80;34.30
44843;DHT22;31884;52.538;13.820;2022-09-09T09:53:28;26.80;33.40
44843;DHT22;31884;52.538;13.820;2022-09-09T09:56:03;26.50;33.60
44843;DHT22;31884;52.538;13.820;2022-09-09T10:01:28;26.10;32.80
44843;DHT22;31884;52.538;13.820;2022-09-09T10:03:59;26.10;32.60
44843;DHT22;31884;52.538;13.820;2022-09-09T10:06:35;26.10;34.40
44843;DHT22;31884;52.538;13.820;2022-09-09T10:09:04;26.10;33.10
44843;DHT22;31884;52.538;13.820;2022-09-09T10:14:56;26.40;33.40
44843;DHT22;31884;52.538;13.820;2022-09-09T10:20:35;26.50;33.60
44843;DHT22;31884;52.538;13.820;2022-09-09T10:23:21;26.40;32.10
44843;DHT22;31884;52.538;13.820;2022-09-09T10:29:00;25.90;31.80
44843;DHT22;31884;52.538;13.820;2022-09-09T10:34:56;25.50;33.60
44843;DHT22;31884;52.538;13.820;2022-09-09T10:37:46;25.30;34.10
44843;DHT22;31884;52.538;13.820;2022-09-09T10:40:37;25.10;34.90
44843;DHT22;31884;52.538;13.820;2022-09-09T10:52:16;24.60;33.80
44843;DHT22;31884;52.538;13.820;2022-09-09T10:57:44;24.20;37.20
44843;DHT22;31884;52.538;13.820;2022-09-09T10:59:48;24.30;37.90
44843;DHT22;31884;52.538;13.820;2022-09-09T11:02:35;24.30;38.10
44843;DHT22;31884;52.538;13.820;2022-09-09T11:05:03;24.30;38.20
44843;DHT22;31884;52.538;13.820;2022-09-09T11:07:40;24.30;39.60
44843;DHT22;31884;52.538;13.820;2022-09-09T11:13:17;24.40;39.60
44843;DHT22;31884;52.538;13.820;2022-09-09T11:15:49;24.50;37.30
44843;DHT22;31884;52.538;13.820;2022-09-09T11:18:20;24.50;38.10
44843;DHT22;31884;52.538;13.820;2022-09-09T11:20:50;24.70;37.50
44843;DHT22;31884;52.538;13.820;2022-09-09T11:23:22;24.80;38.20
44843;DHT22;31884;52.538;13.820;2022-09-09T11:25:55;24.90;37.10
44843;DHT22;31884;52.538;13.820;2022-09-09T11:41:53;24.50;37.20
44843;DHT22;31884;52.538;13.820;2022-09-09T11:44:30;24.40;36.40
44843;DHT22;31884;52.538;13.820;2022-09-09T11:46:56;24.30;37.30
44843;DHT22;31884;52.538;13.820;2022-09-09T11:49:28;24.20;38.20
44843;DHT22;31884;52.538;13.820;2022-09-09T11:51:55;24.20;38.70
44843;DHT22;31884;52.538;13.820;2022-09-09T11:54:34;24.00;39.00
44843;DHT22;31884;52.538;13.820;2022-09-09T11:57:24;24.00;40.00
44843;DHT22;31884;52.538;13.820;2022-09-09T11:59:51;24.10;39.60
44843;DHT22;31884;52.538;13.820;2022-09-09T12:02:25;24.00;40.10
44843;DHT22;31884;52.538;13.820;2022-09-09T12:05:07;24.00;41.00
44843;DHT22;31884;52.538;13.820;2022-09-09T12:07:51;23.90;41.80
44843;DHT22;31884;52.538;13.820;2022-09-09T12:10:26;23.90;40.90
44843;DHT22;31884;52.538;13.820;2022-09-09T12:12:52;23.90;40.10
44843;DHT22;31884;52.538;13.820;2022-09-09T12:15:25;24.00;40.20
44843;DHT22;31884;52.538;13.820;2022-09-09T12:17:55;24.10;40.30
44843;DHT22;31884;52.538;13.820;2022-09-09T12:20:26;24.20;39.50
44843;DHT22;31884;52.538;13.820;2022-09-09T12:22:59;24.20;39.60
44843;DHT22;31884;52.538;13.820;2022-09-09T12:25:46;24.20;40.70
44843;DHT22;31884;52.538;13.820;2022-09-09T12:28:20;24.10;39.90
44843;DHT22;31884;52.538;13.820;2022-09-09T12:31:24;24.20;39.20
44843;DHT22;31884;52.538;13.820;2022-09-09T12:33:52;24.40;38.50
44843;DHT22;31884;52.538;13.820;2022-09-09T12:36:44;24.60;38.30
44843;DHT22;31884;52.538;13.820;2022-09-09T12:39:33;24.60;36.50
44843;DHT22;31884;52.538;13.820;2022-09-09T12:41:59;24.60;36.70
44843;DHT22;31884;52.538;13.820;2022-09-09T12:44:26;24.60;37.30
44843;DHT22;31884;52.538;13.820;2022-09-09T12:46:54;24.70;36.60
44843;DHT22;31884;52.538;13.820;2022-09-09T12:49:35;24.80;35.60
44843;DHT22;31884;52.538;13.820;2022-09-09T12:52:03;24.80;35.80
44843;DHT22;31884;52.538;13.820;2022-09-09T12:54:31;24.90;36.20
44843;DHT22;31884;52.538;13.820;2022-09-09T12:56:57;25.10;35.90
44843;DHT22;31884;52.538;13.820;2022-09-09T12:59:26;25.00;35.10
44843;DHT22;31884;52.538;13.820;2022-09-09T13:01:58;24.80;35.10
44843;DHT22;31884;52.538;13.820;2022-09-09T13:04:24;24.80;35.20
44843;DHT22;31884;52.538;13.820;2022-09-09T13:06:49;24.80;35.80
44843;DHT22;31884;52.538;13.820;2022-09-09T13:09:17;24.80;35.20
44843;DHT22;31884;52.538;13.820;2022-09-09T13:11:50;24.60;35.60
44843;DHT22;31884;52.538;13.820;2022-09-09T13:14:20;24.50;35.20
44843;DHT22;31884;52.538;13.820;2022-09-09T13:16:58;24.30;36.00
44843;DHT22;31884;52.538;13.820;2022-09-09T13:19:25;24.30;34.10
44843;DHT22;31884;52.538;13.820;2022-09-09T13:21:53;24.20;34.70
44843;DHT22;31884;52.538;13.820;2022-09-09T13:24:33;24.20;34.70
44843;DHT22;31884;52.538;13.820;2022-09-09T13:27:02;24.10;34.90
44843;DHT22;31884;52.538;13.820;2022-09-09T13:29:29;24.00;35.70
44843;DHT22;31884;52.538;13.820;2022-09-09T13:32:06;23.90;36.00
44843;DHT22;31884;52.538;13.820;2022-09-09T13:34:34;23.80;36.40
44843;DHT22;31884;52.538;13.820;2022-09-09T13:37:05;23.70;36.70
44843;DHT22;31884;52.538;13.820;2022-09-09T13:39:34;23.70;36.80
44843;DHT22;31884;52.538;13.820;2022-09-09T13:42:02;23.60;36.90
44843;DHT22;31884;52.538;13.820;2022-09-09T13:44:34;23.60;36.90
44843;DHT22;31884;52.538;13.820;2022-09-09T13:47:18;23.60;37.20
44843;DHT22;31884;52.538;13.820;2022-09-09T13:49:46;23.60;38.80
44843;DHT22;31884;52.538;13.820;2022-09-09T13:52:14;23.60;38.20
44843;DHT22;31884;52.538;13.820;2022-09-09T13:54:41;23.60;38.00
44843;DHT22;31884;52.538;13.820;2022-09-09T13:57:24;23.60;37.50
44843;DHT22;31884;52.538;13.820;2022-09-09T13:59:51;23.70;38.00
44843;DHT22;31884;52.538;13.820;2022-09-09T14:02:17;23.70;37.40
44843;DHT22;31884;52.538;13.820;2022-09-09T14:04:43;23.70;37.20
44843;DHT22;31884;52.538;13.820;2022-09-09T14:07:12;23.70;37.40
44843;DHT22;31884;52.538;13.820;2022-09-09T14:09:39;23.80;37.90
44843;DHT22;31884;52.538;13.820;2022-09-09T14:12:05;23.80;37.90
44843;DHT22;31884;52.538;13.820;2022-09-09T14:14:30;23.80;38.00
44843;DHT22;31884;52.538;13.820;2022-09-09T14:16:56;23.80;38.70
44843;DHT22;31884;52.538;13.820;2022-09-09T14:19:21;23.80;39.10
44843;DHT22;31884;52.538;13.820;2022-09-09T14:21:48;23.70;39.30
44843;DHT22;31884;52.538;13.820;2022-09-09T14:24:13;23.70;39.80
44843;DHT22;31884;52.538;13.820;2022-09-09T14:26:39;23.60;40.30
44843;DHT22;31884;52.538;13.820;2022-09-09T14:29:05;23.60;40.70
44843;DHT22;31884;52.538;13.820;2022-09-09T14:31:30;23.50;41.10
44843;DHT22;31884;52.538;13.820;2022-09-09T14:33:55;23.40;41.40
44843;DHT22;31884;52.538;13.820;2022-09-09T14:36:21;23.40;41.70
44843;DHT22;31884;52.538;13.820;2022-09-09T14:38:47;23.30;42.10
44843;DHT22;31884;52.538;13.820;2022-09-09T14:41:16;23.30;42.80
44843;DHT22;31884;52.538;13.820;2022-09-09T14:43:45;23.40;43.00
44843;DHT22;31884;52.538;13.820;2022-09-09T14:46:16;23.30;43.30
44843;DHT22;31884;52.538;13.820;2022-09-09T14:48:42;23.30;43.50
44843;DHT22;31884;52.538;13.820;2022-09-09T14:51:11;23.30;43.60
44843;DHT22;31884;52.538;13.820;2022-09-09T14:53:38;23.40;44.00
44843;DHT22;31884;52.538;13.820;2022-09-09T14:56:22;23.40;43.60
44843;DHT22;31884;52.538;13.820;2022-09-09T14:58:48;23.50;44.30
44843;DHT22;31884;52.538;13.820;2022-09-09T15:01:17;23.60;43.50
44843;DHT22;31884;52.538;13.820;2022-09-09T15:03:49;23.60;43.50
44843;DHT22;31884;52.538;13.820;2022-09-09T15:06:15;23.60;44.30
44843;DHT22;31884;52.538;13.820;2022-09-09T15:08:42;23.50;44.30
44843;DHT22;31884;52.538;13.820;2022-09-09T15:11:10;23.50;45.50
44843;DHT22;31884;52.538;13.820;2022-09-09T15:13:37;23.40;46.10
44843;DHT22;31884;52.538;13.820;2022-09-09T15:16:04;23.40;45.50
44843;DHT22;31884;52.538;13.820;2022-09-09T15:18:31;23.20;45.70
44843;DHT22;31884;52.538;13.820;2022-09-09T15:20:57;23.10;45.40
44843;DHT22;31884;52.538;13.820;2022-09-09T15:23:23;23.10;45.30
44843;DHT22;31884;52.538;13.820;2022-09-09T15:25:53;23.10;45.30
44843;DHT22;31884;52.538;13.820;2022-09-09T15:28:18;23.10;44.20
44843;DHT22;31884;52.538;13.820;2022-09-09T15:30:47;23.00;42.60
44843;DHT22;31884;52.538;13.820;2022-09-09T15:33:13;22.90;42.30
44843;DHT22;31884;52.538;13.820;2022-09-09T15:35:38;22.80;42.10
44843;DHT22;31884;52.538;13.820;2022-09-09T15:38:04;22.70;41.60
44843;DHT22;31884;52.538;13.820;2022-09-09T15:40:32;22.80;41.50
44843;DHT22;31884;52.538;13.820;2022-09-09T15:42:58;22.90;41.10
44843;DHT22;31884;52.538;13.820;2022-09-09T15:45:24;23.00;40.90
44843;DHT22;31884;52.538;13.820;2022-09-09T15:47:49;23.00;40.40
44843;DHT22;31884;52.538;13.820;2022-09-09T15:50:15;22.90;40.60
44843;DHT22;31884;52.538;13.820;2022-09-09T15:52:40;22.70;41.80
44843;DHT22;31884;52.538;13.820;2022-09-09T15:55:06;22.60;42.40
44843;DHT22;31884;52.538;13.820;2022-09-09T15:57:33;22.60;42.50
44843;DHT22;31884;52.538;13.820;2022-09-09T16:00:00;22.60;42.30
44843;DHT22;31884;52.538;13.820;2022-09-09T16:02:26;22.60;41.90
44843;DHT22;31884;52.538;13.820;2022-09-09T16:04:51;22.50;41.70
44843;DHT22;31884;52.538;13.820;2022-09-09T16:07:17;22.30;43.00
44843;DHT22;31884;52.538;13.820;2022-09-09T16:09:43;22.30;45.20
44843;DHT22;31884;52.538;13.820;2022-09-09T16:12:09;22.30;46.40
44843;DHT22;31884;52.538;13.820;2022-09-09T16:14:38;22.20;49.00
44843;DHT22;31884;52.538;13.820;2022-09-09T16:17:05;22.10;50.00
44843;DHT22;31884;52.538;13.820;2022-09-09T16:19:31;21.90;54.00
44843;DHT22;31884;52.538;13.820;2022-09-09T16:21:57;21.80;57.40
44843;DHT22;31884;52.538;13.820;2022-09-09T16:24:23;21.70;60.30
44843;DHT22;31884;52.538;13.820;2022-09-09T16:26:51;21.50;64.70
44843;DHT22;31884;52.538;13.820;2022-09-09T16:29:18;21.40;66.20
44843;DHT22;31884;52.538;13.820;2022-09-09T16:31:47;21.30;68.30
44843;DHT22;31884;52.538;13.820;2022-09-09T16:34:14;21.20;71.00
44843;DHT22;31884;52.538;13.820;2022-09-09T16:36:41;21.00;73.50
44843;DHT22;31884;52.538;13.820;2022-09-09T16:39:09;20.90;77.80
44843;DHT22;31884;52.538;13.820;2022-09-09T16:41:36;20.60;83.70
44843;DHT22;31884;52.538;13.820;2022-09-09T16:44:06;20.40;82.40
44843;DHT22;31884;52.538;13.820;2022-09-09T16:46:35;20.20;83.20
44843;DHT22;31884;52.538;13.820;2022-09-09T16:49:02;20.10;85.90
44843;DHT22;31884;52.538;13.820;2022-09-09T16:51:33;20.00;90.10
44843;DHT22;31884;52.538;13.820;2022-09-09T16:54:01;19.80;91.00
44843;DHT22;31884;52.538;13.820;2022-09-09T16:56:29;19.70;90.80
44843;DHT22;31884;52.538;13.820;2022-09-09T16:59:01;19.50;92.90
44843;DHT22;31884;52.538;13.820;2022-09-09T17:01:28;19.30;92.60
44843;DHT22;31884;52.538;13.820;2022-09-09T17:03:55;19.10;93.60
44843;DHT22;31884;52.538;13.820;2022-09-09T17:06:22;18.90;92.50
44843;DHT22;31884;52.538;13.820;2022-09-09T17:08:54;18.70;92.50
44843;DHT22;31884;52.538;13.820;2022-09-09T17:11:19;18.60;92.10